createdAt,value
2023-05-05T00:00:52.553Z,23.24
2023-05-05T00:01:52.602Z,23.24
2023-05-05T00:02:52.743Z,23.24
2023-05-05T00:03:52.781Z,23.25
2023-05-05T00:04:52.716Z,23.25
2023-05-05T00:05:52.772Z,23.25
2023-05-05T00:06:52.806Z,23.25
2023-05-05T00:07:52.853Z,23.25
2023-05-05T00:08:52.879Z,23.25
2023-05-05T00:09:52.918Z,23.24
2023-05-05T00:10:52.999Z,23.25
2023-05-05T00:11:52.991Z,23.25
2023-05-05T00:12:53.041Z,23.25
2023-05-05T00:13:53.031Z,23.24
2023-05-05T00:14:53.051Z,23.24
2023-05-05T00:15:53.108Z,23.24
2023-05-05T00:16:53.101Z,23.24
2023-05-05T00:17:53.291Z,23.24
2023-05-05T00:18:53.118Z,23.24
2023-05-05T00:19:53.135Z,23.23
2023-05-05T00:20:53.180Z,23.24
2023-05-05T00:21:53.176Z,23.23
2023-05-05T00:22:53.195Z,23.22
2023-05-05T00:23:53.204Z,23.23
2023-05-05T00:24:53.186Z,23.23
2023-05-05T00:25:53.196Z,23.22
2023-05-05T00:26:53.263Z,23.22
2023-05-05T00:27:53.278Z,23.22
2023-05-05T00:28:53.334Z,23.22
2023-05-05T00:29:53.328Z,23.22
2023-05-05T00:30:53.400Z,23.21
2023-05-05T00:31:53.384Z,23.21
2023-05-05T00:32:53.483Z,23.22
2023-05-05T00:33:53.405Z,23.21
2023-05-05T00:34:53.426Z,23.21
2023-05-05T00:35:53.434Z,23.20
2023-05-05T00:36:53.431Z,23.21
2023-05-05T00:37:53.422Z,23.20
2023-05-05T00:38:53.402Z,23.20
2023-05-05T00:39:53.421Z,23.20
2023-05-05T00:40:53.400Z,23.20
2023-05-05T00:41:53.396Z,23.20
2023-05-05T00:42:53.443Z,23.20
2023-05-05T00:43:53.395Z,23.20
2023-05-05T00:44:53.394Z,23.19
2023-05-05T00:45:53.397Z,23.19
2023-05-05T00:46:53.384Z,23.19
2023-05-05T00:47:53.394Z,23.18
2023-05-05T00:48:53.413Z,23.19
2023-05-05T00:49:53.361Z,23.18
2023-05-05T00:50:53.360Z,23.19
2023-05-05T00:51:53.356Z,23.17
2023-05-05T00:52:53.368Z,23.18
2023-05-05T00:53:53.380Z,23.18
2023-05-05T00:54:53.370Z,23.17
2023-05-05T00:55:53.373Z,23.18
2023-05-05T00:56:53.379Z,23.17
2023-05-05T00:57:53.383Z,23.17
2023-05-05T00:58:53.404Z,23.17
2023-05-05T00:59:53.365Z,23.16
2023-05-05T01:00:53.357Z,23.17
2023-05-05T01:01:53.389Z,23.17
2023-05-05T01:02:53.451Z,23.16
2023-05-05T01:03:53.493Z,23.16
2023-05-05T01:04:53.293Z,23.16
2023-05-05T01:05:53.297Z,23.16
2023-05-05T01:06:53.295Z,23.15
2023-05-05T01:07:53.302Z,23.15
2023-05-05T01:08:53.291Z,23.15
2023-05-05T01:10:04.240Z,23.15
2023-05-05T01:10:53.281Z,23.14
2023-05-05T01:11:53.231Z,23.14
2023-05-05T01:12:53.256Z,23.14
2023-05-05T01:13:53.219Z,23.14
2023-05-05T01:14:53.220Z,23.13
2023-05-05T01:15:53.256Z,23.14
2023-05-05T01:16:53.176Z,23.13
2023-05-05T01:17:53.214Z,23.13
2023-05-05T01:18:53.143Z,23.14
2023-05-05T01:19:53.134Z,23.13
2023-05-05T01:20:53.131Z,23.12
2023-05-05T01:21:53.098Z,23.13
2023-05-05T01:22:53.093Z,23.13
2023-05-05T01:23:53.084Z,23.13
2023-05-05T01:24:53.077Z,23.13
2023-05-05T01:25:53.028Z,23.12
2023-05-05T01:26:53.012Z,23.13
2023-05-05T01:27:52.993Z,23.12
2023-05-05T01:28:52.985Z,23.12
2023-05-05T01:29:52.968Z,23.12
2023-05-05T01:30:52.975Z,23.12
2023-05-05T01:31:52.992Z,23.12
2023-05-05T01:32:53.005Z,23.12
2023-05-05T01:33:52.899Z,23.11
2023-05-05T01:34:52.882Z,23.11
2023-05-05T01:35:52.866Z,23.11
2023-05-05T01:36:52.846Z,23.11
2023-05-05T01:37:52.822Z,23.11
2023-05-05T01:38:52.820Z,23.11
2023-05-05T01:39:52.792Z,23.12
2023-05-05T01:40:52.771Z,23.10
2023-05-05T01:41:52.762Z,23.11
2023-05-05T01:42:52.741Z,23.10
2023-05-05T01:43:52.726Z,23.11
2023-05-05T01:44:52.709Z,23.10
2023-05-05T01:45:52.698Z,23.11
2023-05-05T01:46:52.703Z,23.10
2023-05-05T01:47:52.677Z,23.11
2023-05-05T01:48:52.631Z,23.10
2023-05-05T01:49:52.647Z,23.10
2023-05-05T01:50:52.633Z,23.10
2023-05-05T01:51:52.591Z,23.10
2023-05-05T01:52:52.562Z,23.09
2023-05-05T01:53:52.554Z,23.09
2023-05-05T01:54:52.520Z,23.09
2023-05-05T01:55:52.505Z,23.09
2023-05-05T01:56:52.487Z,23.09
2023-05-05T01:57:52.496Z,23.09
2023-05-05T01:58:52.455Z,23.08
2023-05-05T01:59:52.431Z,23.08
2023-05-05T02:00:52.407Z,23.09
2023-05-05T02:01:52.391Z,23.08
2023-05-05T02:02:52.465Z,23.09
2023-05-05T02:03:52.347Z,23.08
2023-05-05T02:04:52.322Z,23.08
2023-05-05T02:05:52.339Z,23.08
2023-05-05T02:06:52.270Z,23.08
2023-05-05T02:07:52.254Z,23.07
2023-05-05T02:08:52.240Z,23.08
2023-05-05T02:09:52.215Z,23.07
2023-05-05T02:10:52.229Z,23.07
2023-05-05T02:11:52.181Z,23.07
2023-05-05T02:12:52.165Z,23.07
2023-05-05T02:13:52.151Z,23.07
2023-05-05T02:14:52.123Z,23.07
2023-05-05T02:15:52.149Z,23.07
2023-05-05T02:16:52.084Z,23.07
2023-05-05T02:17:52.116Z,23.06
2023-05-05T02:18:52.057Z,23.06
2023-05-05T02:19:52.016Z,23.06
2023-05-05T02:20:52.002Z,23.06
2023-05-05T02:21:51.982Z,23.06
2023-05-05T02:22:51.997Z,23.07
2023-05-05T02:23:52.144Z,23.06
2023-05-05T02:24:51.955Z,23.05
2023-05-05T02:25:51.928Z,23.05
2023-05-05T02:26:51.923Z,23.06
2023-05-05T02:27:51.907Z,23.05
2023-05-05T02:28:51.876Z,23.05
2023-05-05T02:29:51.830Z,23.05
2023-05-05T02:30:51.818Z,23.04
2023-05-05T02:31:51.839Z,23.04
2023-05-05T02:32:51.879Z,23.04
2023-05-05T02:33:51.736Z,23.04
2023-05-05T02:34:51.744Z,23.04
2023-05-05T02:35:51.709Z,23.04
2023-05-05T02:36:51.681Z,23.04
2023-05-05T02:37:51.655Z,23.04
2023-05-05T02:38:51.624Z,23.03
2023-05-05T02:39:51.618Z,23.03
2023-05-05T02:40:51.605Z,23.03
2023-05-05T02:41:51.552Z,23.04
2023-05-05T02:42:51.614Z,23.04
2023-05-05T02:43:51.529Z,23.04
2023-05-05T02:44:51.520Z,23.03
2023-05-05T02:45:51.543Z,23.03
2023-05-05T02:46:51.562Z,23.03
2023-05-05T02:47:51.568Z,23.03
2023-05-05T02:48:51.554Z,23.03
2023-05-05T02:49:51.549Z,23.02
2023-05-05T02:50:51.578Z,23.02
2023-05-05T02:51:51.555Z,23.02
2023-05-05T02:52:51.559Z,23.02
2023-05-05T02:53:51.557Z,23.02
2023-05-05T02:54:51.537Z,23.02
2023-05-05T02:55:51.582Z,23.02
2023-05-05T02:56:51.536Z,23.02
2023-05-05T02:57:51.539Z,23.02
2023-05-05T02:58:51.547Z,23.01
2023-05-05T02:59:51.554Z,23.01
2023-05-05T03:00:51.560Z,23.00
2023-05-05T03:01:51.647Z,23.00
2023-05-05T03:02:51.659Z,23.01
2023-05-05T03:03:51.686Z,23.00
2023-05-05T03:04:51.552Z,23.01
2023-05-05T03:05:51.589Z,23.00
2023-05-05T03:06:51.632Z,23.00
2023-05-05T03:07:51.573Z,23.01
2023-05-05T03:08:51.586Z,23.00
2023-05-05T03:09:51.588Z,23.00
2023-05-05T03:10:51.599Z,23.00
2023-05-05T03:11:51.608Z,23.00
2023-05-05T03:12:51.663Z,23.00
2023-05-05T03:13:51.578Z,22.99
2023-05-05T03:14:51.551Z,22.99
2023-05-05T03:15:51.555Z,22.99
2023-05-05T03:16:51.584Z,22.99
2023-05-05T03:17:51.575Z,22.99
2023-05-05T03:18:51.492Z,22.99
2023-05-05T03:19:51.486Z,22.99
2023-05-05T03:20:51.459Z,22.98
2023-05-05T03:21:51.478Z,22.99
2023-05-05T03:22:51.469Z,22.98
2023-05-05T03:23:51.411Z,22.98
2023-05-05T03:24:51.416Z,22.99
2023-05-05T03:25:51.388Z,22.97
2023-05-05T03:26:51.372Z,22.97
2023-05-05T03:27:51.356Z,22.97
2023-05-05T03:28:51.341Z,22.98
2023-05-05T03:29:51.331Z,22.97
2023-05-05T03:30:51.322Z,22.97
2023-05-05T03:31:51.314Z,22.96
2023-05-05T03:32:51.326Z,22.97
2023-05-05T03:33:51.258Z,22.97
2023-05-05T03:34:51.245Z,22.97
2023-05-05T03:35:51.289Z,22.96
2023-05-05T03:36:51.229Z,22.96
2023-05-05T03:37:51.234Z,22.96
2023-05-05T03:38:51.229Z,22.96
2023-05-05T03:39:51.211Z,22.95
2023-05-05T03:40:51.218Z,22.95
2023-05-05T03:41:51.175Z,22.96
2023-05-05T03:42:51.770Z,22.96
2023-05-05T03:43:51.164Z,22.96
2023-05-05T03:44:51.136Z,22.95
2023-05-05T03:45:51.186Z,22.95
2023-05-05T03:46:51.100Z,22.96
2023-05-05T03:47:51.127Z,22.95
2023-05-05T03:48:51.078Z,22.95
2023-05-05T03:49:51.067Z,22.94
2023-05-05T03:50:51.054Z,22.95
2023-05-05T03:51:51.037Z,22.94
2023-05-05T03:52:51.032Z,22.94
2023-05-05T03:53:51.015Z,22.94
2023-05-05T03:54:51.025Z,22.94
2023-05-05T03:55:51.034Z,22.94
2023-05-05T03:56:50.987Z,22.94
2023-05-05T03:57:50.998Z,22.94
2023-05-05T03:58:50.952Z,22.94
2023-05-05T03:59:50.972Z,22.94
2023-05-05T04:00:50.980Z,22.93
2023-05-05T04:01:50.976Z,22.93
2023-05-05T04:02:50.977Z,22.93
2023-05-05T04:03:50.928Z,22.93
2023-05-05T04:04:50.909Z,22.93
2023-05-05T04:05:50.917Z,22.93
2023-05-05T04:06:50.885Z,22.93
2023-05-05T04:07:50.882Z,22.93
2023-05-05T04:08:50.857Z,22.93
2023-05-05T04:09:50.864Z,22.93
2023-05-05T04:10:50.864Z,22.93
2023-05-05T04:11:50.822Z,22.92
2023-05-05T04:12:50.863Z,22.92
2023-05-05T04:13:50.805Z,22.92
2023-05-05T04:14:50.797Z,22.92
2023-05-05T04:15:50.795Z,22.92
2023-05-05T04:16:50.790Z,22.92
2023-05-05T04:17:50.799Z,22.92
2023-05-05T04:18:50.767Z,22.92
2023-05-05T04:19:50.736Z,22.92
2023-05-05T04:20:50.728Z,22.92
2023-05-05T04:21:50.734Z,22.92
2023-05-05T04:22:52.628Z,22.93
2023-05-05T04:23:50.688Z,22.92
2023-05-05T04:24:50.668Z,22.92
2023-05-05T04:25:50.664Z,22.92
2023-05-05T04:26:50.668Z,22.92
2023-05-05T04:27:50.650Z,22.93
2023-05-05T04:28:50.598Z,22.92
2023-05-05T04:29:50.587Z,22.92
2023-05-05T04:30:50.793Z,22.93
2023-05-05T04:31:50.604Z,22.93
2023-05-05T04:32:50.548Z,22.93
2023-05-05T04:33:50.515Z,22.93
2023-05-05T04:34:50.495Z,22.93
2023-05-05T04:35:50.489Z,22.93
2023-05-05T04:36:50.479Z,22.93
2023-05-05T04:37:50.436Z,22.92
2023-05-05T04:38:50.448Z,22.94
2023-05-05T04:39:50.433Z,22.93
2023-05-05T04:40:50.398Z,22.93
2023-05-05T04:41:50.381Z,22.94
2023-05-05T04:42:50.392Z,22.93
2023-05-05T04:43:50.345Z,22.94
2023-05-05T04:44:50.334Z,22.93
2023-05-05T04:45:50.309Z,22.94
2023-05-05T04:46:50.347Z,22.94
2023-05-05T04:47:50.362Z,22.94
2023-05-05T04:48:50.263Z,22.94
2023-05-05T04:49:50.248Z,22.94
2023-05-05T04:50:50.222Z,22.94
2023-05-05T04:51:50.223Z,22.94
2023-05-05T04:52:52.047Z,22.94
2023-05-05T04:53:50.200Z,22.94
2023-05-05T04:54:50.182Z,22.94
2023-05-05T04:55:50.168Z,22.94
2023-05-05T04:56:50.152Z,22.94
2023-05-05T04:57:50.135Z,22.94
2023-05-05T04:58:50.147Z,22.94
2023-05-05T04:59:50.097Z,22.94
2023-05-05T05:00:50.086Z,22.94
2023-05-05T05:01:50.138Z,22.94
2023-05-05T05:02:50.107Z,22.94
2023-05-05T05:03:50.065Z,22.95
2023-05-05T05:04:50.021Z,22.95
2023-05-05T05:05:50.003Z,22.96
2023-05-05T05:06:49.985Z,22.95
2023-05-05T05:07:49.973Z,22.95
2023-05-05T05:08:49.955Z,22.96
2023-05-05T05:09:49.931Z,22.97
2023-05-05T05:10:49.914Z,22.96
2023-05-05T05:11:49.897Z,22.96
2023-05-05T05:12:50.318Z,22.96
2023-05-05T05:13:49.857Z,22.97
2023-05-05T05:14:49.855Z,22.97
2023-05-05T05:15:49.810Z,22.97
2023-05-05T05:16:49.896Z,22.97
2023-05-05T05:17:49.854Z,22.97
2023-05-05T05:18:49.760Z,22.97
2023-05-05T05:19:49.744Z,22.97
2023-05-05T05:20:49.732Z,22.97
2023-05-05T05:21:49.710Z,22.97
2023-05-05T05:22:49.722Z,22.97
2023-05-05T05:23:49.672Z,22.97
2023-05-05T05:24:49.661Z,22.98
2023-05-05T05:25:49.640Z,22.99
2023-05-05T05:26:49.614Z,22.98
2023-05-05T05:27:58.537Z,22.96
2023-05-05T05:28:49.817Z,22.96
2023-05-05T05:29:49.590Z,22.96
2023-05-05T05:30:49.549Z,22.97
2023-05-05T05:31:49.523Z,22.98
2023-05-05T05:32:49.494Z,22.99
2023-05-05T05:33:49.474Z,23.00
2023-05-05T05:34:49.453Z,22.99
2023-05-05T05:35:49.436Z,23.00
2023-05-05T05:36:49.401Z,23.00
2023-05-05T05:37:49.388Z,23.01
2023-05-05T05:38:49.370Z,23.02
2023-05-05T05:39:49.355Z,23.03
2023-05-05T05:40:49.333Z,23.04
2023-05-05T05:41:49.311Z,23.04
2023-05-05T05:42:49.301Z,23.06
2023-05-05T05:43:49.271Z,23.07
2023-05-05T05:44:49.249Z,23.06
2023-05-05T05:45:49.268Z,23.07
2023-05-05T05:46:49.341Z,23.09
2023-05-05T05:47:49.251Z,23.12
2023-05-05T05:48:49.172Z,23.14
2023-05-05T05:49:49.119Z,23.13
2023-05-05T05:50:49.528Z,23.13
2023-05-05T05:51:49.330Z,23.16
2023-05-05T05:52:49.332Z,23.20
2023-05-05T05:53:58.759Z,23.22
2023-05-05T05:54:50.012Z,23.23
2023-05-05T05:56:04.614Z,23.25
2023-05-05T05:56:49.330Z,23.26
2023-05-05T05:57:48.917Z,23.28
2023-05-05T05:58:49.012Z,23.31
2023-05-05T05:59:52.070Z,23.35
2023-05-05T06:00:48.880Z,23.37
2023-05-05T06:01:48.828Z,23.40
2023-05-05T06:03:04.621Z,23.42
2023-05-05T06:03:52.086Z,23.45
2023-05-05T06:04:51.914Z,23.47
2023-05-05T06:05:48.698Z,23.50
2023-05-05T06:06:48.685Z,23.52
2023-05-05T06:08:04.303Z,23.55
2023-05-05T06:08:48.603Z,23.57
2023-05-05T06:09:55.964Z,23.60
2023-05-05T06:10:55.963Z,23.61
2023-05-05T06:11:48.856Z,23.63
2023-05-05T06:12:55.931Z,23.64
2023-05-05T06:13:51.665Z,23.66
2023-05-05T06:14:48.423Z,23.68
2023-05-05T06:15:49.469Z,23.70
2023-05-05T06:18:04.037Z,23.74
2023-05-05T06:18:48.321Z,23.75
2023-05-05T06:19:48.284Z,23.78
2023-05-05T06:20:51.484Z,23.79
2023-05-05T06:21:48.231Z,23.80
2023-05-05T06:22:51.374Z,23.82
2023-05-05T06:23:51.544Z,23.84
2023-05-05T06:24:48.106Z,23.86
2023-05-05T06:25:48.102Z,23.88
2023-05-05T06:26:48.072Z,23.90
2023-05-05T06:27:48.027Z,23.91
2023-05-05T06:28:49.350Z,23.91
2023-05-05T06:29:48.983Z,23.91
2023-05-05T06:30:47.930Z,23.90
2023-05-05T06:31:48.172Z,23.92
2023-05-05T06:32:47.980Z,23.92
2023-05-05T06:33:48.022Z,23.93
2023-05-05T06:34:48.022Z,23.94
2023-05-05T06:35:48.132Z,23.95
2023-05-05T06:36:48.051Z,23.96
2023-05-05T06:37:48.022Z,23.97
2023-05-05T06:38:48.339Z,23.98
2023-05-05T06:39:48.048Z,23.98
2023-05-05T06:40:48.027Z,23.98
2023-05-05T06:41:48.031Z,23.99
2023-05-05T06:42:48.070Z,23.99
2023-05-05T06:43:49.347Z,24.00
2023-05-05T06:44:48.082Z,24.00
2023-05-05T06:45:48.097Z,24.01
2023-05-05T06:47:48.114Z,24.02
2023-05-05T06:48:48.385Z,24.02
2023-05-05T06:49:48.013Z,24.04
2023-05-05T06:50:48.051Z,24.06
2023-05-05T06:51:47.911Z,24.07
2023-05-05T06:52:47.900Z,24.07
2023-05-05T12:18:12.178Z,25.22
2023-05-05T12:19:12.983Z,25.28
2023-05-05T12:20:13.302Z,25.31
2023-05-05T12:21:12.955Z,25.33
2023-05-05T12:22:12.936Z,25.35
2023-05-05T12:23:12.937Z,25.37
2023-05-05T12:24:12.897Z,25.39
2023-05-05T12:25:12.880Z,25.40
2023-05-05T12:26:12.855Z,25.40
2023-05-05T12:27:12.831Z,25.41
2023-05-05T12:28:12.820Z,25.41
2023-05-05T12:29:12.801Z,25.41
2023-05-05T12:30:12.771Z,25.40
2023-05-05T12:31:12.826Z,25.38
2023-05-05T12:32:12.763Z,25.37
2023-05-05T12:33:12.712Z,25.41
2023-05-05T12:34:12.726Z,25.44
2023-05-05T12:35:12.681Z,25.46
2023-05-05T12:36:12.733Z,25.46
2023-05-05T12:37:12.646Z,25.47
2023-05-05T12:38:12.590Z,25.48
2023-05-05T12:39:12.598Z,25.50
2023-05-05T12:40:12.557Z,25.50
2023-05-05T12:41:12.525Z,25.51
2023-05-05T12:42:12.502Z,25.53
2023-05-05T12:43:12.505Z,25.54
2023-05-05T12:44:12.450Z,25.55
2023-05-05T12:45:12.453Z,25.56
2023-05-05T12:46:12.482Z,25.56
2023-05-05T12:47:12.716Z,25.58
2023-05-05T12:48:12.394Z,25.58
2023-05-05T12:49:12.441Z,25.59
2023-05-05T12:50:12.460Z,25.59
2023-05-05T12:51:12.319Z,25.61
2023-05-05T12:52:12.295Z,25.62
2023-05-05T12:53:12.271Z,25.63
2023-05-05T12:54:12.257Z,25.62
2023-05-05T12:55:12.882Z,25.63
2023-05-05T12:56:12.208Z,25.62
2023-05-05T12:57:12.195Z,25.63
2023-05-05T12:58:12.166Z,25.63
2023-05-05T12:59:12.162Z,25.65
2023-05-05T13:00:12.130Z,25.64
2023-05-05T13:01:12.134Z,25.65
2023-05-05T13:02:12.157Z,25.66
2023-05-05T13:03:12.215Z,25.67
2023-05-05T13:04:12.162Z,25.68
2023-05-05T13:05:12.221Z,25.69
2023-05-05T13:06:12.201Z,25.68
2023-05-05T13:07:12.214Z,25.70
2023-05-05T13:08:12.057Z,25.70
2023-05-05T13:09:12.043Z,25.69
2023-05-05T13:10:12.238Z,25.70
2023-05-05T13:11:11.999Z,25.71
2023-05-05T13:12:12.089Z,25.72
2023-05-05T13:13:12.365Z,25.70
2023-05-05T13:14:11.937Z,25.70
2023-05-05T13:15:11.912Z,25.70
2023-05-05T13:16:11.943Z,25.71
2023-05-05T13:17:12.230Z,25.72
2023-05-05T13:18:11.910Z,25.75
2023-05-05T13:19:11.851Z,25.75
2023-05-05T13:20:11.845Z,25.77
2023-05-05T13:21:11.817Z,25.76
2023-05-05T13:22:11.908Z,25.66
2023-05-05T13:23:11.828Z,25.62
2023-05-05T13:24:21.353Z,25.62
2023-05-05T13:25:12.353Z,25.60
2023-05-05T13:26:11.735Z,25.57
2023-05-05T13:27:11.706Z,25.58
2023-05-05T13:28:11.683Z,25.53
2023-05-05T13:29:11.757Z,25.46
2023-05-05T13:30:11.647Z,25.46
2023-05-05T13:31:11.631Z,25.41
2023-05-05T13:32:11.593Z,25.33
2023-05-05T13:33:11.564Z,25.27
2023-05-05T13:34:11.512Z,25.24
2023-05-05T13:35:13.195Z,25.21
2023-05-05T13:36:11.467Z,25.17
2023-05-05T13:37:11.485Z,25.17
2023-05-05T13:38:11.532Z,25.20
2023-05-05T13:39:11.364Z,25.29
2023-05-05T13:40:11.351Z,25.35
2023-05-05T13:41:11.327Z,25.39
2023-05-05T13:42:11.320Z,25.42
2023-05-05T13:43:11.295Z,25.46
2023-05-05T13:44:11.227Z,25.49
2023-05-05T13:45:11.243Z,25.53
2023-05-05T13:46:19.669Z,25.56
2023-05-05T13:47:11.197Z,25.58
2023-05-05T13:48:11.115Z,25.61
2023-05-05T13:49:11.256Z,25.63
2023-05-05T13:50:11.056Z,25.65
2023-05-05T13:51:11.047Z,25.67
2023-05-05T13:52:11.014Z,25.69
2023-05-05T13:53:10.976Z,25.71
2023-05-05T13:54:10.971Z,25.72
2023-05-05T13:55:10.973Z,25.73
2023-05-05T13:56:11.253Z,25.73
2023-05-05T13:57:10.862Z,25.74
2023-05-05T13:58:10.836Z,25.75
2023-05-05T13:59:10.802Z,25.77
2023-05-05T14:00:10.767Z,25.77
2023-05-05T14:01:10.820Z,25.79
2023-05-05T14:02:10.708Z,25.79
2023-05-05T14:03:10.687Z,25.79
2023-05-05T14:04:10.687Z,25.80
2023-05-05T14:05:10.857Z,25.80
2023-05-05T14:06:10.603Z,25.80
2023-05-05T14:07:10.572Z,25.81
2023-05-05T14:08:10.536Z,25.82
2023-05-05T14:09:10.746Z,25.82
2023-05-05T14:10:10.600Z,25.81
2023-05-05T14:11:10.754Z,25.82
2023-05-05T14:12:10.435Z,25.82
2023-05-05T14:13:10.443Z,25.82
2023-05-05T14:14:10.394Z,25.83
2023-05-05T14:15:10.667Z,25.84
2023-05-05T14:16:10.372Z,25.83
2023-05-05T14:17:10.323Z,25.82
2023-05-05T14:18:10.287Z,25.83
2023-05-05T14:19:10.252Z,25.81
2023-05-05T14:20:10.223Z,25.78
2023-05-05T14:21:10.201Z,25.73
2023-05-05T14:22:10.175Z,25.68
2023-05-05T14:23:10.140Z,25.62
2023-05-05T14:24:10.120Z,25.56
2023-05-05T14:25:10.247Z,25.51
2023-05-05T14:26:10.156Z,25.50
2023-05-05T14:27:10.033Z,25.53
2023-05-05T14:28:10.036Z,25.54
2023-05-05T14:29:10.057Z,25.53
2023-05-05T14:30:10.064Z,25.53
2023-05-05T14:31:10.077Z,25.54
2023-05-05T14:32:10.123Z,25.54
2023-05-05T14:33:10.097Z,25.54
2023-05-05T14:34:10.255Z,25.55
2023-05-05T14:35:10.248Z,25.58
2023-05-05T14:36:10.121Z,25.60
2023-05-05T14:37:10.144Z,25.63
2023-05-05T14:38:10.171Z,25.63
2023-05-05T14:39:10.256Z,25.64
2023-05-05T14:40:10.145Z,25.68
2023-05-05T14:41:10.151Z,25.70
2023-05-05T14:42:10.240Z,25.72
2023-05-05T14:43:10.129Z,25.72
2023-05-05T14:44:10.104Z,25.74
2023-05-05T14:45:10.279Z,25.76
2023-05-05T14:46:10.374Z,25.77
2023-05-05T14:47:10.090Z,25.79
2023-05-05T14:48:10.074Z,25.82
2023-05-05T14:49:10.081Z,25.83
2023-05-05T14:50:10.064Z,25.85
2023-05-05T14:51:10.045Z,25.87
2023-05-05T14:52:10.020Z,25.88
2023-05-05T14:53:10.016Z,25.90
2023-05-05T14:54:24.122Z,25.92
2023-05-05T14:55:10.169Z,25.92
2023-05-05T14:56:09.937Z,25.92
2023-05-05T14:57:09.920Z,25.94
2023-05-05T14:58:09.897Z,25.95
2023-05-05T14:59:09.855Z,25.94
2023-05-05T15:00:09.819Z,25.94
2023-05-05T15:01:09.819Z,25.94
2023-05-05T15:02:09.771Z,25.95
2023-05-05T15:03:09.780Z,25.96
2023-05-05T15:04:09.697Z,25.97
2023-05-05T15:05:09.789Z,25.98
2023-05-05T15:06:09.630Z,26.01
2023-05-05T15:07:09.589Z,26.02
2023-05-05T15:08:09.556Z,26.04
2023-05-05T15:09:09.527Z,26.05
2023-05-05T15:10:09.496Z,26.06
2023-05-05T15:11:09.471Z,26.07
2023-05-05T15:12:09.441Z,26.07
2023-05-05T15:13:09.480Z,26.07
2023-05-05T15:14:09.405Z,26.07
2023-05-05T15:15:09.601Z,26.07
2023-05-05T15:16:09.351Z,26.07
2023-05-05T15:17:09.326Z,26.07
2023-05-05T15:18:09.242Z,26.08
2023-05-05T15:19:09.216Z,26.09
2023-05-05T15:20:09.177Z,26.08
2023-05-05T15:21:09.155Z,26.09
2023-05-05T15:22:09.113Z,26.09
2023-05-05T15:23:09.084Z,26.09
2023-05-05T15:24:09.039Z,26.10
2023-05-05T15:25:09.335Z,26.10
2023-05-05T15:26:08.980Z,26.10
2023-05-05T15:27:08.956Z,26.10
2023-05-05T15:28:08.938Z,26.10
2023-05-05T15:29:08.878Z,26.12
2023-05-05T15:30:08.994Z,26.11
2023-05-05T15:31:08.816Z,26.11
2023-05-05T15:32:08.873Z,26.11
2023-05-05T15:33:08.747Z,26.10
2023-05-05T15:34:08.710Z,26.11
2023-05-05T15:35:08.890Z,26.10
2023-05-05T15:36:08.651Z,26.10
2023-05-05T15:37:08.617Z,26.10
2023-05-05T15:38:08.590Z,26.09
2023-05-05T15:39:08.556Z,26.08
2023-05-05T15:40:08.530Z,26.06
2023-05-05T15:41:08.531Z,26.04
2023-05-05T15:42:08.522Z,26.00
2023-05-05T15:43:08.516Z,26.00
2023-05-05T15:44:08.506Z,25.99
2023-05-05T15:45:08.640Z,25.97
2023-05-05T15:46:08.562Z,25.94
2023-05-05T15:47:08.606Z,25.92
2023-05-05T15:48:08.522Z,25.90
2023-05-05T15:49:08.446Z,25.90
2023-05-05T15:50:08.455Z,25.83
2023-05-05T15:51:08.458Z,25.76
2023-05-05T15:52:08.463Z,25.68
2023-05-05T15:53:08.497Z,25.62
2023-05-05T15:54:08.481Z,25.56
2023-05-05T15:55:08.706Z,25.49
2023-05-05T15:56:08.546Z,25.41
2023-05-05T15:57:08.515Z,25.36
2023-05-05T15:58:08.526Z,25.30
2023-05-05T15:59:08.549Z,25.30
2023-05-05T16:00:08.579Z,25.26
2023-05-05T16:01:08.660Z,25.23
2023-05-05T16:02:08.776Z,25.19
2023-05-05T16:03:08.825Z,25.17
2023-05-05T16:04:08.728Z,25.14
2023-05-05T16:05:08.962Z,25.11
2023-05-05T16:06:08.792Z,25.08
2023-05-05T16:07:08.837Z,25.06
2023-05-05T16:08:08.892Z,25.03
2023-05-05T16:09:08.938Z,25.04
2023-05-05T16:10:08.978Z,25.02
2023-05-05T16:11:09.015Z,25.01
2023-05-05T16:12:09.059Z,24.99
2023-05-05T16:13:09.174Z,24.98
2023-05-05T16:14:09.147Z,24.96
2023-05-05T16:15:09.391Z,24.94
2023-05-05T16:16:09.236Z,24.92
2023-05-05T16:17:09.328Z,24.90
2023-05-05T16:18:09.407Z,24.91
2023-05-05T16:19:09.365Z,24.89
2023-05-05T16:20:09.425Z,24.95
2023-05-05T16:21:09.436Z,25.05
2023-05-05T16:22:09.466Z,25.14
2023-05-05T16:23:09.495Z,25.19
2023-05-05T16:24:09.488Z,25.23
2023-05-05T16:25:09.696Z,25.29
2023-05-05T16:26:09.445Z,25.31
2023-05-05T16:27:09.446Z,25.35
2023-05-05T16:28:09.419Z,25.37
2023-05-05T16:29:09.425Z,25.38
2023-05-05T16:30:09.475Z,25.39
2023-05-05T16:31:09.552Z,25.40
2023-05-05T16:32:09.461Z,25.42
2023-05-05T16:33:09.554Z,25.43
2023-05-05T16:34:09.553Z,25.44
2023-05-05T16:35:09.584Z,25.46
2023-05-05T16:36:09.418Z,25.45
2023-05-05T16:37:09.421Z,25.46
2023-05-05T16:38:09.424Z,25.46
2023-05-05T16:39:09.427Z,25.44
2023-05-05T16:40:09.428Z,25.43
2023-05-05T16:41:09.479Z,25.41
2023-05-05T16:42:09.491Z,25.41
2023-05-05T16:43:09.529Z,25.40
2023-05-05T16:44:09.571Z,25.40
2023-05-05T16:45:09.852Z,25.39
2023-05-05T16:46:09.683Z,25.39
2023-05-05T16:47:09.659Z,25.39
2023-05-05T16:48:09.732Z,25.39
2023-05-05T16:49:09.690Z,25.39
2023-05-05T16:50:09.814Z,25.40
2023-05-05T16:51:09.710Z,25.40
2023-05-05T16:52:09.748Z,25.40
2023-05-05T16:53:09.771Z,25.40
2023-05-05T16:54:09.757Z,25.41
2023-05-05T16:55:09.921Z,25.41
2023-05-05T16:56:09.790Z,25.41
2023-05-05T16:57:09.791Z,25.41
2023-05-05T16:58:09.783Z,25.42
2023-05-05T16:59:09.790Z,25.42
2023-05-05T17:00:09.785Z,25.42
2023-05-05T17:01:09.853Z,25.42
2023-05-05T17:02:09.866Z,25.42
2023-05-05T17:03:09.781Z,25.42
2023-05-05T17:04:09.783Z,25.43
2023-05-05T17:05:10.020Z,25.42
2023-05-05T17:06:09.870Z,25.42
2023-05-05T17:07:09.760Z,25.43
2023-05-05T17:08:09.753Z,25.42
2023-05-05T17:09:09.744Z,25.44
2023-05-05T17:10:09.724Z,25.44
2023-05-05T17:11:11.684Z,25.44
2023-05-05T17:12:09.680Z,25.43
2023-05-05T17:13:09.697Z,25.42
2023-05-05T17:14:09.613Z,25.44
2023-05-05T17:15:09.781Z,25.44
2023-05-05T17:16:09.589Z,25.45
2023-05-05T17:17:09.529Z,25.45
2023-05-05T17:18:09.582Z,25.45
2023-05-05T17:19:09.455Z,25.42
2023-05-05T17:20:09.416Z,25.42
2023-05-05T17:21:09.386Z,25.42
2023-05-05T17:22:09.489Z,25.42
2023-05-05T17:23:09.340Z,25.41
2023-05-05T17:24:09.303Z,25.38
2023-05-05T17:25:09.621Z,25.36
2023-05-05T17:26:09.253Z,25.35
2023-05-05T17:27:09.236Z,25.34
2023-05-05T17:28:09.205Z,25.34
2023-05-05T17:29:10.423Z,25.31
2023-05-05T17:30:09.143Z,25.28
2023-05-05T17:31:09.139Z,25.27
2023-05-05T17:32:09.252Z,25.26
2023-05-05T17:33:09.181Z,25.25
2023-05-05T17:34:09.017Z,25.25
2023-05-05T17:35:09.218Z,25.24
2023-05-05T17:36:08.973Z,25.22
2023-05-05T17:37:08.927Z,25.20
2023-05-05T17:38:09.038Z,25.19
2023-05-05T17:39:08.889Z,25.14
2023-05-05T17:40:08.870Z,25.11
2023-05-05T17:41:09.453Z,25.09
2023-05-05T17:42:09.930Z,25.10
2023-05-05T17:43:09.533Z,25.12
2023-05-05T17:44:08.993Z,25.14
2023-05-05T17:45:09.013Z,25.16
2023-05-05T17:46:09.259Z,25.18
2023-05-05T17:47:09.056Z,25.20
2023-05-05T17:48:08.982Z,25.22
2023-05-05T17:49:08.626Z,25.23
2023-05-05T17:50:08.599Z,25.27
2023-05-05T17:51:08.619Z,25.27
2023-05-05T17:52:08.614Z,25.29
2023-05-05T17:53:08.640Z,25.31
2023-05-05T17:54:08.740Z,25.32
2023-05-05T17:55:08.931Z,25.33
2023-05-05T17:56:09.118Z,25.35
2023-05-05T17:57:08.681Z,25.36
2023-05-05T17:58:08.680Z,25.36
2023-05-05T17:59:08.694Z,25.37
2023-05-05T18:00:08.701Z,25.40
2023-05-05T18:01:08.724Z,25.40
2023-05-05T18:02:08.765Z,25.41
2023-05-05T18:03:08.813Z,25.42
2023-05-05T18:04:08.707Z,25.44
2023-05-05T18:05:08.999Z,25.44
2023-05-05T18:06:08.715Z,25.46
2023-05-05T18:07:08.715Z,25.47
2023-05-05T18:08:08.715Z,25.48
2023-05-05T18:09:10.454Z,25.49
2023-05-05T18:10:08.787Z,25.50
2023-05-05T18:11:08.656Z,25.51
2023-05-05T18:12:08.643Z,25.52
2023-05-05T18:13:08.665Z,25.53
2023-05-05T18:14:08.564Z,25.53
2023-05-05T18:15:08.825Z,25.53
2023-05-05T18:16:08.543Z,25.54
2023-05-05T18:17:08.477Z,25.55
2023-05-05T18:18:08.475Z,25.55
2023-05-05T18:19:08.402Z,25.55